Aviation Digital Data Service (ADDS)

Output produced by METARs form (0924 UTC 24 March 2019)
found at http://www.aviationweather.gov/metar/data/
 
Forecast for: NSTU (PAGO PAGO , WS)
Text: NSTU 240534Z 2406/2506 14010KT P6SM VCSH SCT022 BKN040 OVC100
Forecast period: 0600 UTC 24 March 2019 to 0500 UTC 25 March 2019
Forecast type: FROM: standard forecast or significant change
Winds: from the SE (140 degrees) at 12 MPH (10 knots; 5.1 m/s)
Visibility: 6 or more miles 10+ km)
Ceiling: 4000 feet AGL
Clouds: scattered clouds at 2200 feet AGL
broken clouds at 4000 feet AGL
overcast cloud deck at 10000 feet AGL
Weather: VCSH  (showers in vicinity)
Text: FM250500 13010KT 6SM -SHRA SCT022 BKN040 OVC100
Forecast period: 0500 to 0600 UTC 25 March 2019
Forecast type: FROM: standard forecast or significant change
Winds: from the SE (130 degrees) at 12 MPH (10 knots; 5.1 m/s)
Visibility: 6 miles (10 km)
Ceiling: 4000 feet AGL
Clouds: scattered clouds at 2200 feet AGL
broken clouds at 4000 feet AGL
overcast cloud deck at 10000 feet AGL
Weather: -SHRA  (light rain showers)